Terminal Aerodrome Forecast
Issued by NWS Portland, OR

Home | Current Version | Previous Version | Text Only | Print | Product List | Glossary On
Versions: 1 2 3 4 5 6 7 8 9 10 11 12 13 14 15
000
FTUS46 KPQR 231732
TAFEUG
TAF
KEUG 231732Z 2318/2418 19012G22KT P6SM SCT025 BKN035 OVC060
      TEMPO 2318/2321 -RA BKN025 OVC035
     FM232100 19012G22KT P6SM -RA SCT020 BKN035 OVC050
     FM240000 18011G20KT 6SM -RA BKN025 OVC035
     FM240800 19012G24KT 4SM RA BR BKN015 OVC025
     FM241500 21012KT P6SM -SHRA BKN025 BKN045=

USA.gov is the U.S. government's official web portal to all federal, state and local government web resources and services.